createdAt,value
2018-09-25T00:00:46.478Z,99.90
2018-09-25T00:03:22.804Z,99.90
2018-09-25T00:05:59.070Z,99.90
2018-09-25T00:08:35.297Z,99.90
2018-09-25T00:11:11.736Z,99.90
2018-09-25T00:13:48.747Z,99.90
2018-09-25T00:16:24.840Z,99.90
2018-09-25T00:19:01.531Z,99.90
2018-09-25T00:21:37.697Z,99.90
2018-09-25T00:24:13.924Z,99.90
2018-09-25T00:26:50.105Z,99.90
2018-09-25T00:29:28.012Z,99.90
2018-09-25T00:32:03.912Z,99.90
2018-09-25T00:34:40.445Z,99.90
2018-09-25T00:37:16.573Z,99.90
2018-09-25T00:39:53.321Z,99.90
2018-09-25T00:42:29.264Z,99.90
2018-09-25T00:45:05.550Z,99.90
2018-09-25T00:47:41.701Z,99.90
2018-09-25T00:50:17.922Z,99.90
2018-09-25T00:52:53.933Z,99.90
2018-09-25T00:55:30.729Z,99.90
2018-09-25T00:58:06.941Z,99.90
2018-09-25T01:00:43.931Z,99.90
2018-09-25T01:03:19.930Z,99.90
2018-09-25T01:05:56.450Z,99.90
2018-09-25T01:08:32.625Z,99.90
2018-09-25T01:11:08.876Z,99.90
2018-09-25T01:13:46.039Z,99.90
2018-09-25T01:16:22.393Z,99.90
2018-09-25T01:18:58.561Z,99.90
2018-09-25T01:21:35.046Z,99.90
2018-09-25T01:24:11.109Z,99.90
2018-09-25T01:26:47.430Z,99.90
2018-09-25T01:29:23.883Z,99.90
2018-09-25T01:32:01.873Z,99.90
2018-09-25T01:34:38.086Z,99.90
2018-09-25T01:37:14.208Z,99.90
2018-09-25T01:39:50.417Z,99.90
2018-09-25T01:42:26.999Z,99.90
2018-09-25T01:45:03.203Z,99.90
2018-09-25T01:47:39.765Z,99.90
2018-09-25T01:50:15.623Z,99.90
2018-09-25T01:52:52.108Z,99.90
2018-09-25T01:55:28.027Z,99.90
2018-09-25T01:58:04.169Z,99.90
2018-09-25T02:00:40.158Z,99.90
2018-09-25T02:03:16.734Z,99.90
2018-09-25T02:05:52.717Z,99.90
2018-09-25T02:08:28.551Z,99.90
2018-09-25T02:11:04.178Z,99.90
2018-09-25T02:13:40.570Z,99.90
2018-09-25T02:16:16.886Z,99.90
2018-09-25T02:18:53.482Z,99.90
2018-09-25T02:21:29.545Z,99.90
2018-09-25T02:24:06.020Z,99.90
2018-09-25T02:26:42.495Z,99.90
2018-09-25T02:29:18.703Z,99.90
2018-09-25T02:31:54.801Z,99.90
2018-09-25T02:34:32.455Z,99.90
2018-09-25T02:37:08.342Z,99.90
2018-09-25T02:39:46.662Z,99.90
2018-09-25T02:42:22.742Z,99.90
2018-09-25T02:44:59.098Z,99.90
2018-09-25T02:47:35.305Z,99.90
2018-09-25T02:50:11.794Z,99.90
2018-09-25T02:52:48.871Z,99.90
2018-09-25T02:55:25.254Z,99.90
2018-09-25T02:58:02.011Z,99.90
2018-09-25T03:00:39.365Z,99.90
2018-09-25T03:03:16.366Z,99.90
2018-09-25T03:05:52.407Z,99.90
2018-09-25T03:08:28.953Z,99.90
2018-09-25T03:11:05.246Z,99.90
2018-09-25T03:13:41.014Z,99.90
2018-09-25T03:16:17.838Z,99.90
2018-09-25T03:18:53.994Z,99.90
2018-09-25T03:21:30.534Z,99.90
2018-09-25T03:24:06.955Z,99.90
2018-09-25T03:26:43.155Z,99.90
2018-09-25T03:29:19.233Z,99.90
2018-09-25T03:31:55.561Z,99.90
2018-09-25T03:34:32.925Z,99.90
2018-09-25T03:37:10.396Z,99.90
2018-09-25T03:39:46.483Z,99.90
2018-09-25T03:42:22.842Z,99.90
2018-09-25T03:44:58.790Z,99.90
2018-09-25T03:47:34.890Z,99.90
2018-09-25T03:50:11.096Z,99.90
2018-09-25T03:52:47.781Z,99.90
2018-09-25T03:55:23.573Z,99.90
2018-09-25T03:58:00.622Z,99.90
2018-09-25T04:00:36.783Z,99.90
2018-09-25T04:03:12.791Z,99.90
2018-09-25T04:05:48.909Z,99.90
2018-09-25T04:08:25.759Z,99.90
2018-09-25T04:11:01.851Z,99.90
2018-09-25T04:13:38.238Z,99.90
2018-09-25T04:16:14.322Z,99.90
2018-09-25T04:18:50.826Z,99.90
2018-09-25T04:21:27.085Z,99.90
2018-09-25T04:24:03.882Z,99.90
2018-09-25T04:26:39.868Z,99.90
2018-09-25T04:29:16.270Z,99.90
2018-09-25T04:31:52.329Z,99.90
2018-09-25T04:34:28.778Z,99.90
2018-09-25T04:37:07.316Z,99.90
2018-09-25T04:39:43.726Z,98.80
2018-09-25T04:42:19.870Z,98.70
2018-09-25T04:44:56.437Z,98.40
2018-09-25T04:47:32.290Z,98.10
2018-09-25T04:50:08.927Z,97.70
2018-09-25T04:52:45.141Z,96.40
2018-09-25T04:55:21.810Z,96.00
2018-09-25T04:57:57.645Z,95.80
2018-09-25T05:00:34.138Z,94.00
2018-09-25T05:03:10.473Z,93.00
2018-09-25T05:05:46.981Z,91.90
2018-09-25T05:08:22.821Z,90.70
2018-09-25T05:10:59.292Z,90.90
2018-09-25T05:13:35.457Z,90.70
2018-09-25T05:16:11.646Z,90.70
2018-09-25T05:18:47.451Z,91.00
2018-09-25T05:21:23.559Z,91.30
2018-09-25T05:23:59.649Z,91.00
2018-09-25T05:26:37.747Z,91.00
2018-09-25T05:29:14.298Z,90.90
2018-09-25T05:31:50.933Z,90.80
2018-09-25T05:34:26.693Z,90.70
2018-09-25T05:37:03.073Z,91.10
2018-09-25T05:39:40.688Z,90.90
2018-09-25T05:42:17.306Z,90.30
2018-09-25T05:44:53.419Z,88.20
2018-09-25T05:47:29.923Z,86.70
2018-09-25T05:50:05.997Z,83.30
2018-09-25T05:52:42.453Z,81.50
2018-09-25T05:55:18.357Z,80.80
2018-09-25T05:57:54.983Z,81.90
2018-09-25T06:00:31.126Z,83.70
2018-09-25T06:03:07.441Z,84.30
2018-09-25T06:05:43.540Z,87.10
2018-09-25T06:08:19.903Z,89.40
2018-09-25T06:10:55.749Z,90.00
2018-09-25T06:13:32.140Z,90.30
2018-09-25T06:16:08.234Z,90.60
2018-09-25T06:18:44.558Z,91.10
2018-09-25T06:21:20.494Z,92.00
2018-09-25T06:23:56.658Z,92.50
2018-09-25T06:26:32.797Z,93.20
2018-09-25T06:29:09.344Z,93.60
2018-09-25T06:31:45.191Z,94.60
2018-09-25T06:34:21.442Z,94.80
2018-09-25T06:36:57.571Z,94.80
2018-09-25T06:39:33.689Z,94.60
2018-09-25T06:42:11.402Z,95.70
2018-09-25T06:44:47.598Z,96.10
2018-09-25T06:47:23.496Z,95.60
2018-09-25T06:50:00.443Z,95.80
2018-09-25T06:52:36.474Z,96.20
2018-09-25T06:55:13.420Z,96.40
2018-09-25T06:57:49.692Z,95.50
2018-09-25T07:03:05.822Z,96.40
2018-09-25T07:05:41.941Z,96.80
2018-09-25T07:08:18.144Z,97.50
2018-09-25T07:10:54.206Z,97.70
2018-09-25T07:13:31.248Z,97.10
2018-09-25T07:16:07.210Z,97.50
2018-09-25T07:18:43.302Z,98.60
2018-09-25T07:21:19.442Z,98.00
2018-09-25T07:23:55.533Z,96.70
2018-09-25T07:26:31.677Z,96.30
2018-09-25T07:29:07.945Z,94.90
2018-09-25T07:31:43.977Z,95.50
2018-09-25T07:34:20.458Z,96.80
2018-09-25T07:36:56.622Z,99.40
2018-09-25T07:39:32.955Z,99.60
2018-09-25T07:42:10.354Z,98.70
2018-09-25T07:44:46.600Z,99.00
2018-09-25T07:47:22.801Z,99.90
2018-09-25T07:49:59.383Z,99.90
2018-09-25T07:52:35.506Z,99.90
2018-09-25T07:55:11.571Z,99.90
2018-09-25T07:57:47.538Z,99.90
2018-09-25T08:00:24.002Z,99.90
2018-09-25T08:02:59.882Z,99.90
2018-09-25T08:05:36.386Z,99.90
2018-09-25T08:08:12.481Z,99.90
2018-09-25T08:10:48.824Z,99.90
2018-09-25T08:13:24.849Z,99.90
2018-09-25T08:16:01.570Z,99.90
2018-09-25T08:18:37.725Z,99.90
2018-09-25T08:21:14.419Z,99.90
2018-09-25T08:23:50.362Z,99.90
2018-09-25T08:26:26.793Z,99.90
2018-09-25T08:29:03.015Z,99.90
2018-09-25T08:31:39.139Z,99.90
2018-09-25T08:34:15.002Z,99.90
2018-09-25T08:36:51.374Z,99.90
2018-09-25T08:39:27.467Z,99.90
2018-09-25T08:42:03.826Z,99.90
2018-09-25T08:44:40.626Z,99.90
2018-09-25T08:47:17.159Z,99.90
2018-09-25T08:49:53.238Z,99.90
2018-09-25T08:52:29.434Z,99.90
2018-09-25T08:55:05.471Z,99.90
2018-09-25T08:57:42.094Z,99.90
2018-09-25T09:00:18.028Z,99.90
2018-09-25T09:02:54.334Z,99.90
2018-09-25T09:05:30.439Z,99.90
2018-09-25T09:08:06.699Z,99.90
2018-09-25T09:10:42.574Z,99.90
2018-09-25T09:13:18.987Z,99.90
2018-09-25T09:15:54.905Z,99.90
2018-09-25T09:18:31.338Z,99.90
2018-09-25T09:21:07.798Z,99.90
2018-09-25T09:23:44.200Z,99.90
2018-09-25T09:26:20.189Z,99.90
2018-09-25T09:28:57.497Z,99.90
2018-09-25T09:31:33.646Z,99.90
2018-09-25T09:34:10.719Z,99.90
2018-09-25T09:36:46.859Z,99.90
2018-09-25T09:39:23.586Z,99.90
2018-09-25T09:41:59.772Z,99.90
2018-09-25T09:44:36.144Z,99.90
2018-09-25T09:47:12.718Z,99.90
2018-09-25T09:49:49.353Z,99.90
2018-09-25T09:52:25.578Z,99.90
2018-09-25T09:55:02.293Z,99.90
2018-09-25T09:57:38.413Z,99.90
2018-09-25T10:00:14.626Z,99.90
2018-09-25T10:02:50.701Z,99.90
2018-09-25T10:05:27.278Z,99.90
2018-09-25T10:08:03.439Z,99.90
2018-09-25T10:10:40.226Z,99.90
2018-09-25T10:13:16.247Z,99.90
2018-09-25T10:15:52.634Z,99.90
2018-09-25T10:18:28.405Z,99.90
2018-09-25T10:21:05.011Z,99.90
2018-09-25T10:23:41.161Z,99.90
2018-09-25T10:26:17.453Z,99.90
2018-09-25T10:28:53.582Z,99.90
2018-09-25T10:31:29.905Z,99.90
2018-09-25T10:34:06.104Z,99.90
2018-09-25T10:36:42.926Z,99.90
2018-09-25T10:39:18.897Z,99.90
2018-09-25T10:41:55.091Z,99.90
2018-09-25T10:44:31.305Z,99.90
2018-09-25T10:47:07.583Z,99.90
2018-09-25T10:49:45.766Z,99.90
2018-09-25T10:52:22.294Z,99.90
2018-09-25T10:54:58.430Z,99.90
2018-09-25T10:57:34.912Z,99.90
2018-09-25T11:00:12.362Z,99.90
2018-09-25T11:02:48.922Z,99.90
2018-09-25T11:05:25.022Z,99.90
2018-09-25T11:08:01.932Z,99.90
2018-09-25T11:10:37.831Z,99.90
2018-09-25T11:13:14.371Z,99.90
2018-09-25T11:15:50.426Z,99.90
2018-09-25T11:18:26.513Z,99.90
2018-09-25T11:21:02.618Z,99.90
2018-09-25T11:23:39.003Z,99.90
2018-09-25T11:26:14.911Z,99.90
2018-09-25T11:28:51.293Z,99.90
2018-09-25T11:31:27.414Z,99.90
2018-09-25T11:34:03.661Z,99.90
2018-09-25T11:36:39.530Z,99.90
2018-09-25T11:39:16.111Z,99.90
2018-09-25T11:41:51.962Z,99.90
2018-09-25T11:44:28.610Z,99.90
2018-09-25T11:47:04.856Z,99.90
2018-09-25T11:49:41.384Z,99.90
2018-09-25T11:52:18.106Z,99.90
2018-09-25T11:54:54.566Z,99.90
2018-09-25T11:57:30.473Z,99.90
2018-09-25T12:00:06.921Z,99.90
2018-09-25T12:02:43.055Z,99.90
2018-09-25T12:05:19.325Z,99.90
2018-09-25T12:07:55.944Z,99.90
2018-09-25T12:10:32.705Z,99.90
2018-09-25T12:13:08.867Z,99.90
2018-09-25T12:15:45.147Z,99.90
2018-09-25T12:18:21.588Z,99.90
2018-09-25T12:20:57.710Z,99.90
2018-09-25T12:23:33.774Z,99.90
2018-09-25T12:26:10.341Z,99.90
2018-09-25T12:28:46.448Z,99.90
2018-09-25T12:31:22.796Z,99.90
2018-09-25T12:33:59.854Z,99.90
2018-09-25T12:36:36.400Z,99.90
2018-09-25T12:39:14.070Z,99.90
2018-09-25T12:41:50.327Z,99.90
2018-09-25T12:44:26.954Z,99.90
2018-09-25T12:47:03.333Z,99.90
2018-09-25T12:49:39.599Z,99.90
2018-09-25T12:52:16.043Z,99.90
2018-09-25T12:54:53.223Z,99.90
2018-09-25T12:57:29.906Z,99.90
2018-09-25T13:00:06.269Z,99.90
2018-09-25T13:02:42.764Z,99.90
2018-09-25T13:05:18.822Z,99.90
2018-09-25T13:07:55.183Z,99.90
2018-09-25T13:10:31.053Z,99.90
2018-09-25T13:13:07.178Z,99.90
2018-09-25T13:15:43.062Z,99.90
2018-09-25T13:18:19.498Z,99.90
2018-09-25T13:20:55.630Z,99.90
2018-09-25T13:23:31.863Z,99.90
2018-09-25T13:26:08.307Z,99.90
2018-09-25T13:28:45.182Z,99.90
2018-09-25T13:31:21.050Z,99.90
2018-09-25T13:33:57.626Z,99.90
2018-09-25T13:36:33.682Z,99.90
2018-09-25T13:39:10.370Z,99.90
2018-09-25T13:41:46.423Z,99.90
2018-09-25T13:44:23.117Z,99.90
2018-09-25T13:46:59.122Z,99.90
2018-09-25T13:49:35.902Z,99.90
2018-09-25T13:52:11.962Z,99.90
2018-09-25T13:54:48.442Z,99.90
2018-09-25T13:57:25.089Z,99.90
2018-09-25T14:00:03.074Z,99.90
2018-09-25T14:02:38.978Z,99.90
2018-09-25T14:05:15.538Z,99.90
2018-09-25T14:07:51.766Z,99.90
2018-09-25T14:10:28.002Z,99.90
2018-09-25T14:13:03.899Z,99.90
2018-09-25T14:15:40.809Z,99.90
2018-09-25T14:18:17.237Z,99.90
2018-09-25T14:20:53.499Z,99.90
2018-09-25T14:23:29.370Z,99.90
2018-09-25T14:26:05.526Z,99.90
2018-09-25T14:28:41.625Z,99.90
2018-09-25T14:31:18.110Z,99.90
2018-09-25T14:33:54.544Z,99.90
2018-09-25T14:36:30.603Z,99.90
2018-09-25T14:39:06.751Z,99.90
2018-09-25T14:41:43.162Z,99.90
2018-09-25T14:44:19.265Z,99.90
2018-09-25T14:46:55.686Z,99.90
2018-09-25T14:49:31.590Z,99.90
2018-09-25T14:52:08.711Z,99.90
2018-09-25T14:54:44.534Z,99.90
2018-09-25T14:57:21.334Z,99.90
2018-09-25T14:59:57.667Z,99.90
2018-09-25T15:02:34.166Z,99.90
2018-09-25T15:05:10.370Z,99.90
2018-09-25T15:07:46.490Z,99.90
2018-09-25T15:10:22.275Z,99.90
2018-09-25T15:12:58.439Z,99.90
2018-09-25T15:15:34.300Z,99.90
2018-09-25T15:18:15.673Z,99.90
2018-09-25T15:20:51.589Z,99.90
2018-09-25T15:23:27.708Z,99.90
2018-09-25T15:26:03.825Z,99.90
2018-09-25T15:28:40.115Z,99.90
2018-09-25T15:31:16.318Z,99.90
2018-09-25T15:33:52.567Z,99.90
2018-09-25T15:36:28.620Z,99.90
2018-09-25T15:39:04.873Z,99.90
2018-09-25T15:41:41.171Z,99.90
2018-09-25T15:44:17.232Z,99.90
2018-09-25T15:46:53.322Z,99.90
2018-09-25T15:49:29.914Z,99.90
2018-09-25T15:52:05.635Z,99.90
2018-09-25T15:54:41.889Z,99.90
2018-09-25T15:57:18.090Z,99.90
2018-09-25T15:59:54.701Z,99.90
2018-09-25T16:02:30.967Z,99.90
2018-09-25T16:05:07.314Z,99.90
2018-09-25T16:07:44.526Z,99.90
2018-09-25T16:10:20.946Z,99.90
2018-09-25T16:12:57.078Z,99.90
2018-09-25T16:15:33.842Z,99.90
2018-09-25T16:18:12.102Z,99.90
2018-09-25T16:20:50.889Z,99.90
2018-09-25T16:23:27.245Z,99.90
2018-09-25T16:26:03.237Z,99.90
2018-09-25T16:28:39.351Z,99.90
2018-09-25T16:31:16.106Z,99.90
2018-09-25T16:33:52.214Z,99.90
2018-09-25T16:36:28.494Z,99.90
2018-09-25T16:39:04.649Z,99.90
2018-09-25T16:41:40.921Z,99.90
2018-09-25T16:44:16.928Z,99.90
2018-09-25T16:46:53.354Z,99.90
2018-09-25T16:49:29.618Z,99.90
2018-09-25T16:52:05.967Z,99.90
2018-09-25T16:54:42.259Z,99.90
2018-09-25T16:57:18.893Z,99.90
2018-09-25T16:59:55.103Z,99.90
2018-09-25T17:02:31.358Z,99.90
2018-09-25T17:05:07.717Z,99.90
2018-09-25T17:07:44.217Z,99.90
2018-09-25T17:10:20.304Z,99.90
2018-09-25T17:12:56.645Z,99.90
2018-09-25T17:15:32.657Z,99.90
2018-09-25T17:18:09.322Z,99.90
2018-09-25T17:20:45.423Z,99.90
2018-09-25T17:23:22.821Z,99.90
2018-09-25T17:25:58.870Z,99.90
2018-09-25T17:28:34.914Z,99.90
2018-09-25T17:31:11.126Z,99.90
2018-09-25T17:33:47.674Z,99.90
2018-09-25T17:36:23.556Z,99.90
2018-09-25T17:39:00.180Z,99.90
2018-09-25T17:41:36.601Z,99.90
2018-09-25T17:44:13.506Z,99.90
2018-09-25T17:46:49.683Z,99.90
2018-09-25T17:49:26.355Z,99.90
2018-09-25T17:52:02.393Z,99.90
2018-09-25T17:54:39.457Z,99.90
2018-09-25T17:57:15.743Z,99.90
2018-09-25T17:59:52.197Z,99.90
2018-09-25T18:02:28.409Z,99.90
2018-09-25T18:05:04.591Z,99.90
2018-09-25T18:07:40.614Z,99.90
2018-09-25T18:10:16.894Z,99.90
2018-09-25T18:12:52.821Z,99.90
2018-09-25T18:15:29.213Z,99.90
2018-09-25T18:18:05.339Z,99.90
2018-09-25T18:20:41.766Z,99.90
2018-09-25T18:23:17.690Z,99.90
2018-09-25T18:25:56.777Z,99.90
2018-09-25T18:28:32.847Z,99.90
2018-09-25T18:31:09.451Z,99.90
2018-09-25T18:33:45.706Z,99.90
2018-09-25T18:36:22.115Z,99.90
2018-09-25T18:38:58.544Z,99.90
2018-09-25T18:41:34.867Z,99.90
2018-09-25T18:44:11.095Z,99.90
2018-09-25T18:46:48.282Z,99.90
2018-09-25T18:49:24.031Z,99.90
2018-09-25T18:52:00.462Z,99.90
2018-09-25T18:54:36.573Z,99.90
2018-09-25T18:57:12.991Z,99.90
2018-09-25T18:59:49.231Z,99.90
2018-09-25T19:02:26.862Z,99.90
2018-09-25T19:05:03.081Z,99.90
2018-09-25T19:07:39.302Z,99.90
2018-09-25T19:10:15.429Z,99.90
2018-09-25T19:12:52.447Z,99.90
2018-09-25T19:15:28.566Z,99.90
2018-09-25T19:18:05.084Z,99.90
2018-09-25T19:20:41.023Z,99.90
2018-09-25T19:23:17.438Z,99.90
2018-09-25T19:25:53.469Z,99.90
2018-09-25T19:28:33.072Z,99.90
2018-09-25T19:31:10.193Z,99.90
2018-09-25T19:33:46.390Z,99.90
2018-09-25T19:36:22.645Z,99.90
2018-09-25T19:38:59.401Z,99.90
2018-09-25T19:41:35.338Z,99.90
2018-09-25T19:44:12.130Z,99.90
2018-09-25T19:46:48.270Z,99.90
2018-09-25T19:49:24.506Z,99.90
2018-09-25T19:52:00.415Z,99.90
2018-09-25T19:54:36.887Z,99.90
2018-09-25T19:57:12.991Z,99.90
2018-09-25T19:59:49.242Z,99.90
2018-09-25T20:02:25.394Z,99.90
2018-09-25T20:05:05.019Z,99.90
2018-09-25T20:07:41.111Z,99.90
2018-09-25T20:10:17.494Z,99.90
2018-09-25T20:12:53.720Z,99.90
2018-09-25T20:15:29.930Z,99.90
2018-09-25T20:18:05.975Z,99.90
2018-09-25T20:20:42.481Z,99.90
2018-09-25T20:23:18.333Z,99.90
2018-09-25T20:25:55.022Z,99.90
2018-09-25T20:28:31.942Z,99.90
2018-09-25T20:31:08.675Z,99.90
2018-09-25T20:33:44.526Z,99.90
2018-09-25T20:36:21.410Z,99.90
2018-09-25T20:38:57.361Z,99.90
2018-09-25T20:41:33.338Z,99.90
2018-09-25T20:44:09.522Z,99.90
2018-09-25T20:46:45.621Z,99.90
2018-09-25T20:49:21.487Z,99.90
2018-09-25T20:51:58.154Z,99.90
2018-09-25T20:54:33.966Z,99.90
2018-09-25T20:57:10.886Z,99.90
2018-09-25T20:59:46.877Z,99.90
2018-09-25T21:02:23.002Z,99.90
2018-09-25T21:04:58.886Z,99.90
2018-09-25T21:07:35.017Z,99.90
2018-09-25T21:10:11.849Z,99.90
2018-09-25T21:12:48.812Z,99.90
2018-09-25T21:15:24.995Z,99.90
2018-09-25T21:18:01.594Z,99.90
2018-09-25T21:20:37.615Z,99.90
2018-09-25T21:23:13.925Z,99.90
2018-09-25T21:25:50.032Z,99.90
2018-09-25T21:28:26.424Z,99.90
2018-09-25T21:31:03.510Z,99.90
2018-09-25T21:33:39.910Z,99.90
2018-09-25T21:36:16.103Z,99.90
2018-09-25T21:38:52.414Z,99.90
2018-09-25T21:41:28.330Z,99.90
2018-09-25T21:44:05.005Z,99.90
2018-09-25T21:46:41.337Z,99.90
2018-09-25T21:49:18.695Z,99.90
2018-09-25T21:51:55.009Z,99.90
2018-09-25T21:54:31.636Z,99.90
2018-09-25T21:57:09.148Z,99.90
2018-09-25T21:59:45.578Z,99.90
2018-09-25T22:02:21.544Z,99.90
2018-09-25T22:04:58.174Z,99.90
2018-09-25T22:07:34.007Z,99.90
2018-09-25T22:10:10.310Z,99.90
2018-09-25T22:12:46.570Z,99.90
2018-09-25T22:15:22.983Z,99.90
2018-09-25T22:17:58.941Z,99.90
2018-09-25T22:20:35.438Z,99.90
2018-09-25T22:23:11.306Z,99.90
2018-09-25T22:25:47.506Z,99.90
2018-09-25T22:28:23.718Z,99.90
2018-09-25T22:31:00.317Z,99.90
2018-09-25T22:33:37.454Z,99.90
2018-09-25T22:36:14.122Z,99.90
2018-09-25T22:38:50.371Z,99.90
2018-09-25T22:41:26.335Z,99.90
2018-09-25T22:44:03.001Z,99.90
2018-09-25T22:46:39.361Z,99.90
2018-09-25T22:49:15.574Z,99.90
2018-09-25T22:51:51.798Z,99.90
2018-09-25T22:54:27.767Z,99.90
2018-09-25T22:57:04.158Z,99.90
2018-09-25T22:59:40.226Z,99.90
2018-09-25T23:02:16.568Z,99.90
2018-09-25T23:04:52.930Z,99.90
2018-09-25T23:07:29.429Z,99.90
2018-09-25T23:10:05.366Z,99.90
2018-09-25T23:12:42.011Z,99.90
2018-09-25T23:15:18.404Z,99.90
2018-09-25T23:17:54.433Z,99.90
2018-09-25T23:20:30.384Z,99.90
2018-09-25T23:23:06.405Z,99.90
2018-09-25T23:25:42.373Z,99.90
2018-09-25T23:28:18.587Z,99.90
2018-09-25T23:30:54.449Z,99.90
2018-09-25T23:33:30.735Z,99.90
2018-09-25T23:36:07.738Z,99.90
2018-09-25T23:38:44.194Z,99.90
2018-09-25T23:41:22.698Z,99.90
2018-09-25T23:57:14.523Z,99.90
2018-09-25T23:59:53.019Z,99.90
